Big Bear Station Historical Data
Daily Summary for September 19, 2017 Units:  English    Metric   Both
« Previous Day
Next Day »
Daily Weekly Monthly Yearly Custom
  High: Low: Average:
Temperature: 70.0 °F 46.6 °F 56.1 °F
Dew Point: 50.7 °F 17.2 °F 36.2 °F
Humidity: 67 % 26 % 48 %
Wind Speed: 7.8 mph 0.0 mph 2 mph
Wind Gust: -999.0 mph - -
Wind:- - WSW
Pressure: 30.15 in 30.10 in -
Precipitation: 0.00 in    
Historical Graphs
 
 
Tabular Data for September 19, 2017
Time Temperature Dew Point Pressure Wind Wind Speed Wind Gust Humidity Rainfall Rate (Hourly)
00:03 50.7 °F 36.0 °F 30.15 in Calm   -999.0 mph 57 % 0 in
00:18 50.7 °F 34.2 °F 30.15 in SE 2.2 mph -999.0 mph 53 % 0 in
00:33 49.8 °F 30.9 °F 30.15 in Calm   -999.0 mph 48 % 0 in
00:48 50.4 °F 29.8 °F 30.15 in Calm   -999.0 mph 45 % 0 in
01:04 50.7 °F 31.2 °F 30.15 in ESE 1.1 mph -999.0 mph 47 % 0 in
01:19 50.5 °F 29.4 °F 30.14 in North 2.7 mph -999.0 mph 44 % 0 in
01:34 50.7 °F 26.0 °F 30.14 in WNW 3.7 mph -999.0 mph 38 % 0 in
01:50 50.4 °F 24.4 °F 30.15 in Calm   -999.0 mph 36 % 0 in
02:05 50.0 °F 22.0 °F 30.14 in Calm   -999.0 mph 33 % 0 in
02:20 49.6 °F 20.2 °F 30.13 in West 1.1 mph -999.0 mph 31 % 0 in
02:35 50.4 °F 19.3 °F 30.13 in ENE 3.7 mph -999.0 mph 29 % 0 in
02:51 50.9 °F 17.2 °F 30.13 in SSE 1.1 mph -999.0 mph 26 % 0 in
03:06 50.5 °F 18.6 °F 30.13 in Calm   -999.0 mph 28 % 0 in
03:21 49.5 °F 18.5 °F 30.13 in SSE 1.7 mph -999.0 mph 29 % 0 in
03:36 49.1 °F 19.7 °F 30.13 in South 2.2 mph -999.0 mph 31 % 0 in
03:52 48.7 °F 22.3 °F 30.13 in SE 2.2 mph -999.0 mph 35 % 0 in
04:07 48.4 °F 23.3 °F 30.12 in South 2.7 mph -999.0 mph 37 % 0 in
04:22 49.3 °F 26.0 °F 30.12 in South 2.7 mph -999.0 mph 40 % 0 in
04:38 48.9 °F 27.4 °F 30.12 in Calm   -999.0 mph 43 % 0 in
04:53 49.1 °F 29.2 °F 30.12 in ESE 1.1 mph -999.0 mph 46 % 0 in
05:08 49.3 °F 30.9 °F 30.12 in West 1.1 mph -999.0 mph 49 % 0 in
05:23 49.1 °F 30.8 °F 30.12 in Calm   -999.0 mph 49 % 0 in
05:38 48.9 °F 30.6 °F 30.12 in SE 2.2 mph -999.0 mph 49 % 0 in
05:54 48.2 °F 30.4 °F 30.12 in Calm   -999.0 mph 50 % 0 in
06:09 48.6 °F 31.3 °F 30.12 in NNE 1.7 mph -999.0 mph 51 % 0 in
06:24 48.7 °F 31.9 °F 30.12 in Calm   -999.0 mph 52 % 0 in
06:39 47.8 °F 31.0 °F 30.13 in SSE 1.7 mph -999.0 mph 52 % 0 in
06:54 46.6 °F 30.8 °F 30.13 in SSE 1.7 mph -999.0 mph 54 % 0 in
07:10 47.1 °F 30.4 °F 30.13 in SSE 2.2 mph -999.0 mph 52 % 0 in
07:25 47.8 °F 31.0 °F 30.13 in South 1.1 mph -999.0 mph 52 % 0 in
07:41 48.7 °F 30.9 °F 30.13 in Calm   -999.0 mph 50 % 0 in
07:56 50.7 °F 31.7 °F 30.13 in SE 2.2 mph -999.0 mph 48 % 0 in
08:11 52.7 °F 31.4 °F 30.13 in Calm   -999.0 mph 44 % 0 in
08:27 53.8 °F 33.5 °F 30.13 in North 1.7 mph -999.0 mph 46 % 0 in
08:42 54.5 °F 35.2 °F 30.14 in WNW 1.7 mph -999.0 mph 48 % 0 in
08:57 55.4 °F 35.0 °F 30.14 in NW 2.2 mph -999.0 mph 46 % 0 in
09:12 56.1 °F 35.0 °F 30.14 in West 2.7 mph -999.0 mph 45 % 0 in
09:28 57.0 °F 35.9 °F 30.15 in West 1.1 mph -999.0 mph 45 % 0 in
09:43 57.9 °F 34.9 °F 30.15 in Calm   -999.0 mph 42 % 0 in
09:58 59.0 °F 35.3 °F 30.15 in Calm   -999.0 mph 41 % 0 in
10:13 59.9 °F 35.5 °F 30.14 in North 1.7 mph -999.0 mph 40 % 0 in
10:29 61.7 °F 37.8 °F 30.14 in WNW 3.7 mph -999.0 mph 41 % 0 in
10:44 65.5 °F 38.5 °F 30.14 in NW 3.2 mph -999.0 mph 37 % 0 in
10:59 66.6 °F 35.8 °F 30.14 in WNW 1.1 mph -999.0 mph 32 % 0 in
11:14 67.1 °F 37.8 °F 30.14 in SW 1.7 mph -999.0 mph 34 % 0 in
11:29 67.1 °F 40.0 °F 30.14 in WNW 2.7 mph -999.0 mph 37 % 0 in
11:45 67.3 °F 42.2 °F 30.13 in NNE 3.2 mph -999.0 mph 40 % 0 in
12:00 68.7 °F 43.4 °F 30.13 in SSW 2.2 mph -999.0 mph 40 % 0 in
12:15 68.9 °F 44.2 °F 30.14 in Calm   -999.0 mph 41 % 0 in
12:30 69.6 °F 44.9 °F 30.13 in North 4.2 mph -999.0 mph 41 % 0 in
12:45 70.0 °F 46.5 °F 30.12 in NW 1.7 mph -999.0 mph 43 % 0 in
13:01 68.5 °F 47.5 °F 30.12 in SW 3.7 mph -999.0 mph 47 % 0 in
13:16 68.2 °F 48.3 °F 30.12 in West 4.7 mph -999.0 mph 49 % 0 in
13:31 67.5 °F 47.1 °F 30.12 in WNW 6.8 mph -999.0 mph 48 % 0 in
13:46 68.0 °F 48.1 °F 30.12 in NW 7.8 mph -999.0 mph 49 % 0 in
14:02 66.6 °F 49.9 °F 30.11 in NNW 3.7 mph -999.0 mph 55 % 0 in
14:17 66.4 °F 50.7 °F 30.11 in SSE 2.7 mph -999.0 mph 57 % 0 in
14:32 66.2 °F 48.6 °F 30.11 in NNW 4.2 mph -999.0 mph 53 % 0 in
14:47 65.8 °F 50.1 °F 30.11 in NNW 5.3 mph -999.0 mph 57 % 0 in
15:03 65.3 °F 49.7 °F 30.11 in WNW 7.8 mph -999.0 mph 57 % 0 in
15:18 65.8 °F 47.7 °F 30.11 in NNW 5.3 mph -999.0 mph 52 % 0 in
15:34 65.3 °F 49.2 °F 30.11 in WNW 5.3 mph -999.0 mph 56 % 0 in
15:49 64.8 °F 48.7 °F 30.11 in NW 4.7 mph -999.0 mph 56 % 0 in
16:04 63.5 °F 49.4 °F 30.11 in NW 5.3 mph -999.0 mph 60 % 0 in
16:19 62.8 °F 49.6 °F 30.11 in NNW 4.2 mph -999.0 mph 62 % 0 in
16:35 61.9 °F 48.7 °F 30.11 in NW 4.7 mph -999.0 mph 62 % 0 in
16:50 63.3 °F 46.9 °F 30.11 in WNW 3.7 mph -999.0 mph 55 % 0 in
17:05 64.0 °F 43.9 °F 30.12 in WNW 1.1 mph -999.0 mph 48 % 0 in
17:20 62.6 °F 47.6 °F 30.11 in WNW 5.8 mph -999.0 mph 58 % 0 in
17:35 59.5 °F 47.3 °F 30.11 in NNW 4.2 mph -999.0 mph 64 % 0 in
17:51 59.0 °F 45.1 °F 30.12 in WNW 2.7 mph -999.0 mph 60 % 0 in
18:06 58.8 °F 45.8 °F 30.11 in West 5.3 mph -999.0 mph 62 % 0 in
18:21 57.7 °F 45.2 °F 30.11 in South 1.7 mph -999.0 mph 63 % 0 in
18:36 57.2 °F 43.9 °F 30.11 in Calm   -999.0 mph 61 % 0 in
18:51 56.3 °F 45.1 °F 30.11 in Calm   -999.0 mph 66 % 0 in
19:07 55.4 °F 44.6 °F 30.11 in Calm   -999.0 mph 67 % 0 in
19:22 55.4 °F 42.2 °F 30.11 in Calm   -999.0 mph 61 % 0 in
19:37 55.2 °F 39.8 °F 30.11 in Calm   -999.0 mph 56 % 0 in
19:52 54.9 °F 40.4 °F 30.11 in Calm   -999.0 mph 58 % 0 in
20:07 53.6 °F 41.3 °F 30.12 in SE 1.1 mph -999.0 mph 63 % 0 in
20:23 53.4 °F 40.3 °F 30.12 in Calm   -999.0 mph 61 % 0 in
20:38 52.5 °F 36.8 °F 30.12 in Calm   -999.0 mph 55 % 0 in
20:53 52.5 °F 34.9 °F 30.12 in SSE 1.1 mph -999.0 mph 51 % 0 in
21:08 52.9 °F 34.3 °F 30.12 in Calm   -999.0 mph 49 % 0 in
21:24 51.6 °F 34.1 °F 30.10 in South 2.2 mph -999.0 mph 51 % 0 in
21:39 50.9 °F 31.9 °F 30.10 in South 2.7 mph -999.0 mph 48 % 0 in
21:54 50.9 °F 30.3 °F 30.10 in SSW 1.1 mph -999.0 mph 45 % 0 in
22:09 51.6 °F 30.4 °F 30.10 in SSW 1.7 mph -999.0 mph 44 % 0 in
22:24 51.3 °F 29.0 °F 30.10 in Calm   -999.0 mph 42 % 0 in
22:40 51.3 °F 29.6 °F 30.10 in Calm   -999.0 mph 43 % 0 in
22:55 51.1 °F 29.9 °F 30.10 in Calm   -999.0 mph 44 % 0 in
23:10 50.4 °F 30.4 °F 30.10 in Calm   -999.0 mph 46 % 0 in
23:25 49.8 °F 30.9 °F 30.11 in Calm   -999.0 mph 48 % 0 in
23:40 49.8 °F 30.9 °F 30.10 in Calm   -999.0 mph 48 % 0 in
23:56 48.9 °F 30.1 °F 30.10 in Calm   -999.0 mph 48 % 0 in
Big Bear CA Weather
Compliments of Weather Underground - 1.5 mb